createdAt,value
2018-07-30T00:00:26.617Z,34.9
2018-07-30T00:01:29.059Z,35
2018-07-30T00:02:31.238Z,34.8
2018-07-30T00:03:33.680Z,34.9
2018-07-30T00:04:35.867Z,35
2018-07-30T00:05:38.043Z,35
2018-07-30T00:06:40.494Z,35
2018-07-30T00:07:42.641Z,35
2018-07-30T00:08:45.084Z,35
2018-07-30T00:09:47.267Z,35
2018-07-30T00:10:49.707Z,35
2018-07-30T00:11:52.148Z,35
2018-07-30T00:12:54.333Z,35
2018-07-30T00:13:56.515Z,35
2018-07-30T00:14:58.977Z,35
2018-07-30T00:16:01.156Z,35
2018-07-30T00:17:03.313Z,34.9
2018-07-30T00:18:05.487Z,35.1
2018-07-30T00:19:07.661Z,35
2018-07-30T00:20:10.111Z,34.9
2018-07-30T00:21:12.015Z,35.1
2018-07-30T00:22:14.186Z,35
2018-07-30T00:23:16.626Z,35
2018-07-30T00:24:19.076Z,35
2018-07-30T00:25:21.530Z,35.1
2018-07-30T00:26:23.710Z,35
2018-07-30T00:27:25.907Z,34.9
2018-07-30T00:28:28.068Z,35.2
2018-07-30T00:29:29.978Z,34.9
2018-07-30T00:30:32.171Z,35
2018-07-30T00:31:34.073Z,35.2
2018-07-30T00:32:36.517Z,35.1
2018-07-30T00:33:38.967Z,35.2
2018-07-30T00:34:41.160Z,35.1
2018-07-30T00:35:43.616Z,35.1
2018-07-30T00:36:45.519Z,35.1
2018-07-30T00:37:47.982Z,35.1
2018-07-30T00:38:50.136Z,35.1
2018-07-30T00:39:52.038Z,35
2018-07-30T00:40:53.937Z,35
2018-07-30T00:41:56.098Z,35.2
2018-07-30T00:42:58.546Z,35
2018-07-30T00:44:00.192Z,35.1
2018-07-30T00:45:02.367Z,35
2018-07-30T00:46:04.256Z,35.1
2018-07-30T00:47:06.699Z,35
2018-07-30T00:48:08.883Z,35.1
2018-07-30T00:49:11.432Z,35.2
2018-07-30T00:50:13.880Z,35
2018-07-30T00:51:16.334Z,35.1
2018-07-30T00:52:18.528Z,35.2
2018-07-30T00:53:20.726Z,35
2018-07-30T00:54:23.179Z,35.1
2018-07-30T00:55:25.348Z,35.1
2018-07-30T00:56:27.530Z,35.1
2018-07-30T00:57:29.705Z,35
2018-07-30T00:58:32.167Z,35
2018-07-30T00:59:34.616Z,34.9
2018-07-30T01:00:37.063Z,35
2018-07-30T01:01:39.227Z,35.1
2018-07-30T01:02:41.447Z,35.2
2018-07-30T01:03:43.897Z,35
2018-07-30T01:04:46.340Z,35.2
2018-07-30T01:05:47.955Z,35.1
2018-07-30T01:06:50.398Z,35.1
2018-07-30T01:07:52.612Z,35
2018-07-30T01:08:55.079Z,34.9
2018-07-30T01:09:57.229Z,35
2018-07-30T01:10:59.669Z,35.1
2018-07-30T01:12:02.117Z,35.2
2018-07-30T01:13:04.566Z,35.1
2018-07-30T01:14:07.026Z,35
2018-07-30T01:15:09.215Z,35.1
2018-07-30T01:16:11.093Z,35.3
2018-07-30T01:17:13.538Z,35.1
2018-07-30T01:18:15.708Z,35.1
2018-07-30T01:19:17.909Z,35.1
2018-07-30T01:20:19.802Z,35.1
2018-07-30T01:21:21.986Z,35.1
2018-07-30T01:22:24.435Z,35.1
2018-07-30T01:23:26.617Z,35.2
2018-07-30T01:24:28.802Z,35.2
2018-07-30T01:25:30.967Z,35.1
2018-07-30T01:26:33.119Z,35.1
2018-07-30T01:27:35.566Z,35.2
2018-07-30T01:28:38.021Z,35
2018-07-30T01:29:40.477Z,35.2
2018-07-30T01:30:42.645Z,35.2
2018-07-30T01:31:45.107Z,35.1
2018-07-30T01:32:47.023Z,35.1
2018-07-30T01:33:49.470Z,35.2
2018-07-30T01:34:51.359Z,35.2
2018-07-30T01:35:53.505Z,35.2
2018-07-30T01:36:55.947Z,35.2
2018-07-30T01:37:58.120Z,35.1
2018-07-30T01:39:00.582Z,35.1
2018-07-30T01:40:02.764Z,35.2
2018-07-30T01:41:04.937Z,35.2
2018-07-30T01:42:07.103Z,34.9
2018-07-30T01:43:09.282Z,35.1
2018-07-30T01:44:11.456Z,35
2018-07-30T01:45:13.653Z,35.1
2018-07-30T01:46:16.099Z,35
2018-07-30T01:47:18.019Z,35
2018-07-30T01:48:20.468Z,35
2018-07-30T01:49:22.919Z,35
2018-07-30T01:50:25.369Z,34.9
2018-07-30T01:51:27.826Z,34.9
2018-07-30T01:52:30.017Z,35.1
2018-07-30T01:53:32.474Z,35
2018-07-30T01:54:34.917Z,34.9
2018-07-30T01:55:37.071Z,34.9
2018-07-30T01:56:38.944Z,34.8
2018-07-30T01:57:41.145Z,34.8
2018-07-30T01:58:43.587Z,34.7
2018-07-30T01:59:46.027Z,34.9
2018-07-30T02:00:48.172Z,35
2018-07-30T02:01:50.621Z,34.9
2018-07-30T02:02:52.803Z,34.8
2018-07-30T02:03:54.975Z,34.8
2018-07-30T02:04:57.417Z,34.8
2018-07-30T02:05:59.882Z,34.8
2018-07-30T02:07:01.560Z,34.9
2018-07-30T02:08:03.730Z,34.7
2018-07-30T02:09:05.927Z,34.7
2018-07-30T02:10:08.101Z,34.8
2018-07-30T02:11:10.279Z,34.6
2018-07-30T02:12:12.740Z,34.8
2018-07-30T02:13:15.189Z,34.8
2018-07-30T02:14:17.348Z,34.8
2018-07-30T02:15:18.966Z,34.8
2018-07-30T02:16:21.416Z,34.7
2018-07-30T02:17:23.318Z,34.7
2018-07-30T02:18:25.501Z,34.8
2018-07-30T02:19:27.959Z,34.6
2018-07-30T02:20:30.414Z,34.5
2018-07-30T02:21:32.765Z,34.6
2018-07-30T02:22:34.952Z,34.6
2018-07-30T02:23:37.121Z,34.8
2018-07-30T02:24:39.295Z,34.7
2018-07-30T02:25:40.912Z,34.6
2018-07-30T02:26:43.096Z,34.7
2018-07-30T02:27:45.547Z,34.7
2018-07-30T02:28:48.013Z,34.6
2018-07-30T02:29:49.900Z,34.5
2018-07-30T02:30:52.091Z,34.6
2018-07-30T02:31:53.958Z,34.8
2018-07-30T02:32:56.105Z,34.7
2018-07-30T02:33:58.303Z,34.6
2018-07-30T02:35:00.487Z,34.6
2018-07-30T02:36:02.939Z,34.6
2018-07-30T02:37:05.115Z,34.7
2018-07-30T02:38:07.557Z,34.6
2018-07-30T02:39:09.165Z,34.5
2018-07-30T02:40:11.308Z,34.7
2018-07-30T02:41:13.206Z,34.6
2018-07-30T02:42:15.396Z,34.6
2018-07-30T02:43:17.844Z,34.6
2018-07-30T02:44:20.024Z,34.6
2018-07-30T02:45:22.221Z,34.7
2018-07-30T02:46:24.667Z,34.8
2018-07-30T02:47:26.814Z,34.6
2018-07-30T02:48:29.000Z,34.6
2018-07-30T02:49:30.909Z,34.6
2018-07-30T02:50:33.096Z,34.4
2018-07-30T02:51:35.571Z,34.6
2018-07-30T02:52:38.007Z,34.6
2018-07-30T02:53:40.449Z,34.5
2018-07-30T02:54:42.897Z,34.5
2018-07-30T02:55:44.825Z,34.5
2018-07-30T02:56:46.997Z,34.7
2018-07-30T02:57:49.168Z,34.4
2018-07-30T02:58:51.567Z,34.6
2018-07-30T02:59:53.747Z,34.5
2018-07-30T03:00:56.195Z,34.7
2018-07-30T03:01:58.637Z,34.6
2018-07-30T03:03:00.527Z,34.7
2018-07-30T03:04:02.722Z,34.5
2018-07-30T03:05:05.167Z,34.5
2018-07-30T03:06:07.624Z,34.5
2018-07-30T03:07:09.507Z,34.6
2018-07-30T03:08:11.406Z,34.5
2018-07-30T03:09:13.321Z,34.6
2018-07-30T03:10:15.537Z,34.6
2018-07-30T03:11:17.982Z,34.6
2018-07-30T03:12:20.142Z,34.6
2018-07-30T03:13:22.318Z,34.5
2018-07-30T03:14:24.494Z,34.5
2018-07-30T03:15:26.387Z,34.5
2018-07-30T03:16:28.578Z,34.5
2018-07-30T03:17:30.457Z,34.5
2018-07-30T03:18:32.934Z,34.5
2018-07-30T03:19:35.103Z,34.6
2018-07-30T03:20:36.717Z,34.5
2018-07-30T03:21:38.888Z,34.5
2018-07-30T03:22:41.070Z,34.5
2018-07-30T03:23:43.249Z,34.6
2018-07-30T03:24:45.707Z,34.6
2018-07-30T03:25:47.577Z,34.5
2018-07-30T03:26:50.055Z,34.5
2018-07-30T03:27:51.954Z,34.6
2018-07-30T03:28:53.959Z,34.5
2018-07-30T03:29:56.412Z,34.6
2018-07-30T03:30:58.848Z,34.5
2018-07-30T03:32:01.046Z,34.5
2018-07-30T03:33:03.232Z,34.6
2018-07-30T03:34:05.388Z,34.6
2018-07-30T03:35:07.582Z,34.6
2018-07-30T03:36:09.748Z,34.6
2018-07-30T03:37:11.914Z,34.6
2018-07-30T03:38:14.106Z,34.7
2018-07-30T03:39:16.277Z,34.5
2018-07-30T03:40:18.460Z,34.5
2018-07-30T03:41:20.647Z,34.7
2018-07-30T03:42:23.010Z,34.6
2018-07-30T03:43:25.057Z,34.6
2018-07-30T03:44:27.227Z,34.6
2018-07-30T03:45:29.114Z,34.6
2018-07-30T03:46:31.295Z,34.6
2018-07-30T03:47:33.449Z,34.5
2018-07-30T03:48:35.889Z,34.6
2018-07-30T03:49:38.345Z,34.6
2018-07-30T03:50:40.231Z,34.5
2018-07-30T03:51:42.387Z,34.5
2018-07-30T03:52:44.032Z,34.5
2018-07-30T03:53:46.182Z,34.4
2018-07-30T03:54:47.864Z,34.5
2018-07-30T03:55:50.097Z,34.7
2018-07-30T03:56:52.553Z,34.5
2018-07-30T03:57:55.075Z,34.7
2018-07-30T03:58:57.270Z,34.6
2018-07-30T03:59:59.597Z,34.7
2018-07-30T04:01:02.520Z,34.5
2018-07-30T04:02:04.987Z,34.5
2018-07-30T04:03:07.441Z,34.6
2018-07-30T04:04:09.617Z,34.6
2018-07-30T04:05:11.795Z,34.5
2018-07-30T04:06:14.269Z,34.4
2018-07-30T04:07:16.254Z,34.5
2018-07-30T04:08:18.441Z,34.6
2018-07-30T04:09:20.603Z,34.4
2018-07-30T04:10:22.799Z,34.5
2018-07-30T04:11:24.961Z,34.7
2018-07-30T04:12:26.839Z,34.5
2018-07-30T04:13:29.300Z,34.5
2018-07-30T04:14:31.738Z,34.4
2018-07-30T04:15:33.906Z,34.5
2018-07-30T04:16:36.101Z,34.5
2018-07-30T04:17:38.277Z,34.5
2018-07-30T04:18:40.723Z,34.6
2018-07-30T04:19:42.907Z,34.6
2018-07-30T04:20:45.097Z,34.5
2018-07-30T04:21:47.254Z,34.5
2018-07-30T04:22:49.430Z,34.6
2018-07-30T04:23:51.870Z,34.5
2018-07-30T04:24:54.012Z,34.5
2018-07-30T04:25:56.474Z,34.5
2018-07-30T04:26:58.923Z,34.5
2018-07-30T04:28:01.121Z,34.6
2018-07-30T04:29:03.567Z,34.5
2018-07-30T04:30:06.010Z,34.4
2018-07-30T04:31:07.897Z,34.6
2018-07-30T04:32:10.057Z,34.6
2018-07-30T04:33:11.953Z,34.5
2018-07-30T04:34:14.125Z,34.4
2018-07-30T04:35:16.581Z,34.5
2018-07-30T04:36:18.778Z,34.5
2018-07-30T04:37:20.961Z,34.4
2018-07-30T04:38:23.451Z,34.5
2018-07-30T04:39:25.338Z,34.5
2018-07-30T04:40:27.488Z,34.5
2018-07-30T04:41:29.946Z,34.5
2018-07-30T04:42:31.826Z,34.5
2018-07-30T04:43:34.277Z,34.5
2018-07-30T04:44:36.728Z,34.4
2018-07-30T04:45:38.904Z,34.5
2018-07-30T04:46:41.350Z,34.5
2018-07-30T04:47:43.788Z,34.4
2018-07-30T04:48:45.970Z,34.5
2018-07-30T04:49:48.160Z,34.5
2018-07-30T04:50:50.346Z,34.5
2018-07-30T04:51:52.803Z,34.5
2018-07-30T04:52:54.980Z,34.4
2018-07-30T04:53:56.895Z,34.4
2018-07-30T04:54:59.342Z,34.5
2018-07-30T04:56:01.781Z,34.5
2018-07-30T04:57:04.469Z,34.5
2018-07-30T04:58:07.035Z,34.5
2018-07-30T04:59:09.492Z,34.4
2018-07-30T05:00:11.931Z,34.6
2018-07-30T05:01:14.376Z,34.4
2018-07-30T05:02:16.568Z,34.4
2018-07-30T05:03:18.474Z,34.5
2018-07-30T05:04:20.920Z,34.4
2018-07-30T05:05:23.102Z,34.5
2018-07-30T05:06:24.987Z,34.5
2018-07-30T05:07:27.439Z,34.3
2018-07-30T05:08:29.608Z,34.4
2018-07-30T05:09:32.060Z,34.5
2018-07-30T05:10:34.501Z,34.3
2018-07-30T05:11:36.959Z,34.5
2018-07-30T05:12:39.109Z,34.5
2018-07-30T05:13:41.278Z,34.5
2018-07-30T05:14:43.446Z,34.5
2018-07-30T05:15:45.630Z,34.4
2018-07-30T05:16:47.813Z,34.4
2018-07-30T05:17:49.997Z,34.4
2018-07-30T05:18:52.451Z,34.4
2018-07-30T05:19:54.352Z,34.5
2018-07-30T05:20:56.817Z,34.4
2018-07-30T05:21:58.987Z,34.4
2018-07-30T05:23:01.176Z,34.4
2018-07-30T05:24:03.642Z,34.4
2018-07-30T05:25:05.838Z,34.4
2018-07-30T05:26:08.284Z,34.4
2018-07-30T05:27:10.750Z,34.4
2018-07-30T05:28:13.188Z,34.5
2018-07-30T05:29:15.346Z,34.6
2018-07-30T05:30:17.801Z,34.4
2018-07-30T05:31:19.975Z,34.3
2018-07-30T05:32:22.167Z,34.3
2018-07-30T05:33:24.673Z,34.5
2018-07-30T05:34:26.581Z,34.4
2018-07-30T05:35:28.758Z,34.5
2018-07-30T05:36:31.212Z,34.5
2018-07-30T05:37:33.669Z,34.4
2018-07-30T05:38:35.862Z,34.4
2018-07-30T05:39:38.057Z,34.5
2018-07-30T05:40:40.229Z,34.3
2018-07-30T05:41:42.412Z,34.5
2018-07-30T05:42:44.899Z,34.4
2018-07-30T05:43:47.259Z,34.5
2018-07-30T05:44:49.715Z,34.4
2018-07-30T05:45:51.871Z,34.4
2018-07-30T05:46:54.337Z,34.5
2018-07-30T05:47:56.213Z,34.6
2018-07-30T05:48:58.672Z,34.4
2018-07-30T05:50:01.195Z,34.5
2018-07-30T05:51:03.657Z,34.4
2018-07-30T05:52:05.267Z,34.5
2018-07-30T05:53:07.154Z,34.5
2018-07-30T05:54:09.318Z,34.4
2018-07-30T05:55:11.769Z,34.4
2018-07-30T05:56:14.212Z,34.5
2018-07-30T05:57:15.838Z,34.3
2018-07-30T05:58:18.322Z,34.3
2018-07-30T05:59:20.783Z,34.4
2018-07-30T06:00:22.988Z,34.3
2018-07-30T06:01:25.173Z,34.3
2018-07-30T06:02:27.620Z,34.5
2018-07-30T06:03:30.069Z,34.5
2018-07-30T06:04:32.268Z,34.2
2018-07-30T06:05:34.726Z,34.5
2018-07-30T06:06:36.830Z,34.3
2018-07-30T06:07:39.018Z,34.4
2018-07-30T06:08:41.171Z,34.5
2018-07-30T06:09:43.424Z,34.4
2018-07-30T06:10:46.218Z,34.3
2018-07-30T06:11:48.681Z,34.3
2018-07-30T06:12:50.605Z,34.3
2018-07-30T06:13:53.059Z,34.5
2018-07-30T06:14:54.688Z,34.4
2018-07-30T06:15:56.592Z,34.4
2018-07-30T06:16:58.224Z,34.3
2018-07-30T06:18:00.667Z,34.3
2018-07-30T06:19:02.849Z,34.2
2018-07-30T06:20:05.021Z,34.4
2018-07-30T06:21:07.484Z,34.4
2018-07-30T06:22:09.927Z,34.5
2018-07-30T06:23:12.076Z,34.3
2018-07-30T06:24:14.247Z,34.3
2018-07-30T06:25:16.205Z,34.4
2018-07-30T06:26:18.172Z,34.4
2018-07-30T06:27:20.478Z,34.5
2018-07-30T06:28:23.254Z,34.2
2018-07-30T06:29:25.459Z,34.3
2018-07-30T06:30:27.635Z,34.5
2018-07-30T06:31:29.506Z,34.4
2018-07-30T06:32:31.968Z,34.4
2018-07-30T06:33:34.154Z,34.4
2018-07-30T06:34:36.361Z,34.4
2018-07-30T06:35:38.807Z,34.4
2018-07-30T06:36:40.966Z,34.3
2018-07-30T06:37:43.142Z,34.2
2018-07-30T06:38:45.595Z,34.4
2018-07-30T06:39:48.040Z,34.3
2018-07-30T06:40:50.218Z,34.4
2018-07-30T06:41:51.848Z,34.3
2018-07-30T06:42:54.031Z,34.4
2018-07-30T06:43:56.481Z,34.3
2018-07-30T06:44:58.415Z,34.4
2018-07-30T06:46:00.594Z,34.3
2018-07-30T06:47:03.045Z,34.4
2018-07-30T06:48:05.566Z,34.4
2018-07-30T06:49:08.039Z,34.3
2018-07-30T06:50:10.225Z,34.4
2018-07-30T06:51:12.398Z,34.2
2018-07-30T06:52:14.563Z,34.2
2018-07-30T06:53:16.884Z,34.4
2018-07-30T06:54:19.599Z,34.3
2018-07-30T06:55:21.795Z,34.4
2018-07-30T06:56:23.969Z,34.3
2018-07-30T06:57:26.424Z,34.3
2018-07-30T06:58:28.894Z,34.4
2018-07-30T06:59:30.518Z,34.4
2018-07-30T07:00:32.979Z,34.3
2018-07-30T07:01:35.157Z,34.3
2018-07-30T07:02:37.348Z,34.4
2018-07-30T07:03:39.498Z,34.4
2018-07-30T07:04:41.657Z,34.4
2018-07-30T07:05:43.843Z,34.5
2018-07-30T07:06:46.341Z,34.3
2018-07-30T07:07:48.491Z,34.3
2018-07-30T07:08:50.410Z,34.3
2018-07-30T07:09:52.546Z,34.4
2018-07-30T07:10:55.140Z,34.4
2018-07-30T07:11:57.400Z,34.4
2018-07-30T07:12:59.860Z,34.1
2018-07-30T07:14:01.768Z,34.4
2018-07-30T07:15:04.209Z,34.3
2018-07-30T07:16:06.682Z,34.2
2018-07-30T07:17:08.843Z,34.3
2018-07-30T07:18:11.300Z,34.3
2018-07-30T07:19:13.497Z,34.4
2018-07-30T07:20:15.679Z,34.4
2018-07-30T07:21:18.191Z,34.3
2018-07-30T07:22:21.023Z,34.4
2018-07-30T07:23:22.903Z,34.2
2018-07-30T07:24:25.106Z,34.4
2018-07-30T07:25:27.578Z,34.3
2018-07-30T07:26:29.215Z,34.3
2018-07-30T07:27:31.660Z,34.3
2018-07-30T07:28:33.578Z,34.3
2018-07-30T07:29:36.028Z,34.4
2018-07-30T07:30:38.468Z,34.3
2018-07-30T07:31:40.668Z,34.4
2018-07-30T07:32:42.572Z,34.3
2018-07-30T07:33:45.044Z,34.3
2018-07-30T07:34:47.220Z,34.4
2018-07-30T07:35:49.445Z,34.3
2018-07-30T07:36:51.627Z,34.3
2018-07-30T07:37:54.070Z,34.3
2018-07-30T07:38:56.227Z,34.3
2018-07-30T07:39:58.410Z,34.5
2018-07-30T07:41:00.601Z,34.4
2018-07-30T07:42:02.748Z,34.4
2018-07-30T07:43:04.938Z,34.4
2018-07-30T07:44:06.828Z,34.4
2018-07-30T07:45:09.293Z,34.4
2018-07-30T07:46:11.458Z,34.4
2018-07-30T07:47:13.693Z,34.4
2018-07-30T07:48:16.348Z,34.4
2018-07-30T07:49:19.096Z,34.4
2018-07-30T07:50:22.212Z,34.3
2018-07-30T07:51:25.312Z,34.4
2018-07-30T07:52:27.493Z,34.5
2018-07-30T07:53:29.638Z,34.3
2018-07-30T07:54:31.785Z,34.3
2018-07-30T07:55:33.944Z,34.5
2018-07-30T07:56:35.837Z,34.3
2018-07-30T07:57:37.761Z,34.2
2018-07-30T07:58:40.223Z,34.4
2018-07-30T07:59:42.656Z,34.5
2018-07-30T08:00:44.244Z,34.3
2018-07-30T08:01:46.698Z,34.3
2018-07-30T08:02:48.895Z,34.3
2018-07-30T08:03:51.362Z,34.4
2018-07-30T08:04:53.921Z,34.4
2018-07-30T08:05:56.100Z,34.3
2018-07-30T08:06:58.015Z,34.3
2018-07-30T08:08:00.184Z,34.4
2018-07-30T08:09:02.708Z,34.4
2018-07-30T08:10:04.568Z,34.6
2018-07-30T08:11:07.133Z,34.3
2018-07-30T08:12:09.718Z,34.5
2018-07-30T08:13:12.227Z,34.3
2018-07-30T08:14:14.424Z,34.5
2018-07-30T08:15:16.314Z,34.4
2018-07-30T08:16:18.326Z,34.3
2018-07-30T08:17:21.105Z,34.4
2018-07-30T08:18:23.557Z,34.4
2018-07-30T08:19:25.752Z,34.3
2018-07-30T08:20:27.929Z,34.3
2018-07-30T08:21:30.123Z,34.3
2018-07-30T08:22:32.566Z,34.4
2018-07-30T08:23:35.019Z,34.5
2018-07-30T08:24:37.212Z,34.3
2018-07-30T08:25:39.466Z,34.5
2018-07-30T08:26:41.911Z,34.3
2018-07-30T08:27:44.102Z,34.4
2018-07-30T08:28:46.303Z,34.4
2018-07-30T08:29:48.495Z,34.3
2018-07-30T08:30:50.955Z,34.4
2018-07-30T08:31:53.397Z,34.5
2018-07-30T08:32:55.965Z,34.4
2018-07-30T08:33:58.531Z,34.3
2018-07-30T08:35:00.966Z,34.4
2018-07-30T08:36:02.875Z,34.4
2018-07-30T08:37:04.809Z,34.3
2018-07-30T08:38:06.989Z,34.4
2018-07-30T08:39:09.170Z,34.3
2018-07-30T08:40:11.073Z,34.4
2018-07-30T08:41:12.407Z,34.3
2018-07-30T08:42:14.980Z,34.4
2018-07-30T08:43:17.257Z,34.4
2018-07-30T08:44:19.158Z,34.3
2018-07-30T08:45:21.338Z,34.4
2018-07-30T08:46:23.789Z,34.5
2018-07-30T08:47:25.711Z,34.3
2018-07-30T08:48:28.169Z,34.4
2018-07-30T08:49:30.352Z,34.2
2018-07-30T08:50:32.539Z,34.5
2018-07-30T08:51:34.728Z,34.2
2018-07-30T08:52:36.916Z,34.3
2018-07-30T08:53:39.373Z,34.4
2018-07-30T08:54:41.278Z,34.4
2018-07-30T08:55:43.450Z,34.4
2018-07-30T08:56:45.640Z,34.3
2018-07-30T08:57:48.089Z,34.3
2018-07-30T08:58:50.254Z,34.3
2018-07-30T08:59:52.444Z,34.2
2018-07-30T09:00:54.633Z,34.4
2018-07-30T09:01:57.076Z,34.3
2018-07-30T09:02:59.528Z,34.3
2018-07-30T09:04:01.688Z,34.4
2018-07-30T09:05:03.870Z,34.4
2018-07-30T09:06:05.773Z,34.5
2018-07-30T09:07:08.304Z,34.3
2018-07-30T09:08:10.291Z,34.4
2018-07-30T09:09:12.751Z,34.4
2018-07-30T09:10:14.927Z,34.4
2018-07-30T09:11:17.125Z,34.4
2018-07-30T09:12:19.358Z,34.5
2018-07-30T09:13:21.632Z,34.3
2018-07-30T09:14:24.093Z,34.4
2018-07-30T09:15:26.285Z,34.3
2018-07-30T09:16:28.472Z,34.3
2018-07-30T09:17:30.663Z,34.4
2018-07-30T09:18:32.837Z,34.3
2018-07-30T09:19:35.027Z,34.5
2018-07-30T09:20:37.466Z,34.4
2018-07-30T09:21:39.916Z,34.4
2018-07-30T09:22:42.367Z,34.3
2018-07-30T09:23:44.539Z,34.3
2018-07-30T09:24:46.152Z,34.4
2018-07-30T09:25:48.074Z,34.3
2018-07-30T09:26:50.650Z,34.3
2018-07-30T09:27:52.968Z,34.4
2018-07-30T09:28:55.151Z,34.3
2018-07-30T09:29:57.619Z,34.4
2018-07-30T09:31:00.078Z,34.3
2018-07-30T09:32:02.527Z,34.3
2018-07-30T09:33:05.084Z,34.4
2018-07-30T09:34:07.669Z,34.4
2018-07-30T09:35:09.868Z,34.3
2018-07-30T09:36:12.340Z,34.3
2018-07-30T09:37:14.804Z,34.3
2018-07-30T09:38:17.256Z,34.3
2018-07-30T09:39:19.244Z,34.4
2018-07-30T09:40:22.185Z,34.4
2018-07-30T09:41:24.632Z,34.3
2018-07-30T09:42:27.077Z,34.4
2018-07-30T09:43:29.529Z,34.3
2018-07-30T09:44:32.125Z,34.4
2018-07-30T09:45:34.178Z,34.4
2018-07-30T09:46:36.643Z,34.4
2018-07-30T09:47:39.090Z,34.3
2018-07-30T09:48:41.240Z,34.4
2018-07-30T09:49:43.682Z,34.3
2018-07-30T09:50:45.881Z,34.3
2018-07-30T09:51:48.058Z,34.3
2018-07-30T09:52:50.233Z,34.4
2018-07-30T09:53:52.715Z,34.3
2018-07-30T09:54:54.897Z,34.3
2018-07-30T09:55:56.808Z,34.4
2018-07-30T09:56:59.276Z,34.4
2018-07-30T09:58:01.158Z,34.4
2018-07-30T09:59:03.619Z,34.4
2018-07-30T10:00:05.803Z,34.3
2018-07-30T10:01:08.255Z,34.4
2018-07-30T10:02:10.752Z,34.3
2018-07-30T10:03:13.207Z,34.3
2018-07-30T10:04:15.097Z,34.3
2018-07-30T10:05:17.560Z,34.3
2018-07-30T10:06:19.937Z,34.3
2018-07-30T10:07:22.586Z,34.3
2018-07-30T10:08:25.148Z,34.3
2018-07-30T10:09:27.591Z,34.3
2018-07-30T10:10:30.042Z,34.4
2018-07-30T10:11:32.526Z,34.3
2018-07-30T10:12:35.073Z,34.3
2018-07-30T10:13:37.003Z,34.3
2018-07-30T10:14:39.189Z,34.5
2018-07-30T10:15:41.375Z,34.4
2018-07-30T10:16:43.811Z,34.4
2018-07-30T10:17:46.296Z,34.3
2018-07-30T10:18:48.248Z,34.3
2018-07-30T10:19:50.436Z,34.5
2018-07-30T10:20:52.629Z,34.3
2018-07-30T10:21:54.537Z,34.3
2018-07-30T10:22:56.981Z,34.4
2018-07-30T10:23:59.131Z,34.5
2018-07-30T10:25:01.578Z,34.3
2018-07-30T10:26:04.031Z,34.4
2018-07-30T10:27:06.478Z,34.2
2018-07-30T10:28:08.377Z,34.6
2018-07-30T10:29:10.816Z,34.2
2018-07-30T10:30:13.048Z,34.3
2018-07-30T10:31:14.984Z,34.4
2018-07-30T10:32:17.438Z,34.4
2018-07-30T10:33:19.592Z,34.2
2018-07-30T10:34:21.763Z,34.4
2018-07-30T10:35:24.302Z,34.4
2018-07-30T10:36:26.474Z,34.4
2018-07-30T10:37:28.935Z,34.5
2018-07-30T10:38:31.388Z,34.3
2018-07-30T10:39:33.570Z,34.3
2018-07-30T10:40:36.040Z,34.3
2018-07-30T10:41:38.477Z,34.3
2018-07-30T10:42:40.662Z,34.4
2018-07-30T10:43:43.114Z,34.4
2018-07-30T10:44:45.026Z,34.4
2018-07-30T10:45:47.178Z,34.3
2018-07-30T10:46:49.349Z,34.4
2018-07-30T10:47:51.499Z,34.4
2018-07-30T10:48:53.093Z,34.3
2018-07-30T10:49:55.558Z,34.3
2018-07-30T10:50:58.021Z,34.4
2018-07-30T10:52:00.203Z,34.5
2018-07-30T10:53:02.107Z,34.3
2018-07-30T10:54:04.559Z,34.4
2018-07-30T10:55:07.006Z,34.4
2018-07-30T10:56:09.192Z,34.3
2018-07-30T10:57:11.637Z,34.4
2018-07-30T10:58:13.817Z,34.3
2018-07-30T10:59:15.997Z,34.4
2018-07-30T11:00:18.189Z,34.3
2018-07-30T11:01:20.636Z,34.3
2018-07-30T11:02:23.087Z,34.4
2018-07-30T11:03:25.553Z,34.5
2018-07-30T11:04:27.742Z,34.4
2018-07-30T11:05:29.646Z,34.3
2018-07-30T11:06:31.609Z,34.3
2018-07-30T11:07:34.055Z,34.3
2018-07-30T11:08:36.515Z,34.4
2018-07-30T11:09:38.526Z,34.4
2018-07-30T11:10:40.888Z,34.3
2018-07-30T11:11:43.026Z,34.3
2018-07-30T11:12:45.476Z,34.4
2018-07-30T11:13:47.937Z,34.3
2018-07-30T11:14:50.286Z,34.4
2018-07-30T11:15:52.661Z,34.4
2018-07-30T11:16:54.837Z,34.3
2018-07-30T11:17:57.022Z,34.3
2018-07-30T11:18:59.174Z,34.3
2018-07-30T11:20:01.355Z,34.4
2018-07-30T11:21:03.871Z,34.5
2018-07-30T11:22:06.049Z,34.4
2018-07-30T11:23:08.504Z,34.4
2018-07-30T11:24:10.964Z,34.5
2018-07-30T11:25:13.160Z,34.4
2018-07-30T11:26:15.665Z,34.5
2018-07-30T11:27:17.829Z,34.4
2018-07-30T11:28:20.452Z,34.2
2018-07-30T11:29:22.746Z,34.5
2018-07-30T11:30:25.190Z,34.5
2018-07-30T11:31:27.365Z,34.5
2018-07-30T11:32:29.537Z,34.4
2018-07-30T11:33:31.821Z,34.5
2018-07-30T11:34:34.131Z,34.4
2018-07-30T11:35:36.584Z,34.6
2018-07-30T11:36:39.032Z,34.4
2018-07-30T11:37:41.222Z,34.5
2018-07-30T11:38:43.445Z,34.4
2018-07-30T11:39:45.931Z,34.5
2018-07-30T11:40:48.425Z,34.4
2018-07-30T11:41:50.341Z,34.4
2018-07-30T11:42:52.900Z,34.4
2018-07-30T11:43:55.312Z,34.3
2018-07-30T11:44:57.776Z,34.4
2018-07-30T11:45:59.956Z,34.4
2018-07-30T11:47:02.440Z,34.5
2018-07-30T11:48:04.594Z,34.3
2018-07-30T11:49:06.738Z,34.4
2018-07-30T11:50:08.938Z,34.4
2018-07-30T11:51:11.393Z,34.4
2018-07-30T11:52:13.569Z,34.3
2018-07-30T11:53:15.768Z,34.4
2018-07-30T11:54:18.067Z,34.6
2018-07-30T11:55:20.626Z,34.4
2018-07-30T11:56:22.811Z,34.4
2018-07-30T11:57:24.978Z,34.5
2018-07-30T11:58:27.171Z,34.5
2018-07-30T11:59:29.347Z,34.5
2018-07-30T12:00:31.553Z,34.4
2018-07-30T12:01:34.011Z,34.3
2018-07-30T12:02:36.184Z,34.4
2018-07-30T12:03:38.357Z,34.4
2018-07-30T12:04:40.799Z,34.5
2018-07-30T12:05:43.253Z,34.4
2018-07-30T12:06:45.477Z,34.4
2018-07-30T12:07:48.000Z,34.5
2018-07-30T12:08:50.719Z,34.4
2018-07-30T12:09:53.427Z,34.4
2018-07-30T12:10:55.882Z,34.3
2018-07-30T12:11:58.059Z,34.6
2018-07-30T12:13:00.513Z,34.5
2018-07-30T12:14:02.683Z,34.5
2018-07-30T12:15:04.592Z,34.6
2018-07-30T12:16:06.480Z,34.5
2018-07-30T12:17:08.386Z,34.4
2018-07-30T12:18:10.007Z,34.4
2018-07-30T12:19:12.173Z,34.5
2018-07-30T12:20:14.609Z,34.5
2018-07-30T12:21:17.077Z,34.5
2018-07-30T12:22:19.008Z,34.5
2018-07-30T12:23:21.177Z,34.5
2018-07-30T12:24:23.092Z,34.5
2018-07-30T12:25:24.996Z,34.5
2018-07-30T12:26:27.173Z,34.5
2018-07-30T12:27:29.688Z,34.4
2018-07-30T12:28:32.144Z,34.4
2018-07-30T12:29:34.593Z,34.5
2018-07-30T12:30:37.251Z,34.6
2018-07-30T12:31:39.717Z,34.6
2018-07-30T12:32:41.866Z,34.6
2018-07-30T12:33:44.028Z,34.6
2018-07-30T12:34:46.478Z,34.6
2018-07-30T12:35:48.657Z,34.5
2018-07-30T12:36:50.807Z,34.5
2018-07-30T12:37:53.002Z,34.5
2018-07-30T12:38:54.877Z,34.4
2018-07-30T12:39:57.336Z,34.5
2018-07-30T12:40:59.829Z,34.5
2018-07-30T12:42:01.823Z,34.5
2018-07-30T12:43:04.270Z,34.5
2018-07-30T12:44:06.450Z,34.4
2018-07-30T12:45:08.907Z,34.3
2018-07-30T12:46:10.844Z,34.4
2018-07-30T12:47:13.279Z,34.4
2018-07-30T12:48:15.736Z,34.5
2018-07-30T12:49:17.935Z,34.4
2018-07-30T12:50:19.653Z,34.4
2018-07-30T12:51:22.192Z,34.5
2018-07-30T12:52:24.084Z,34.5
2018-07-30T12:53:26.243Z,34.4
2018-07-30T12:54:28.467Z,34.4
2018-07-30T12:55:30.641Z,34.4
2018-07-30T12:56:32.820Z,34.4
2018-07-30T12:57:34.737Z,34.3
2018-07-30T12:58:36.886Z,34.5
2018-07-30T12:59:39.344Z,34.4
2018-07-30T13:00:41.499Z,34.5
2018-07-30T13:01:43.654Z,34.5
2018-07-30T13:02:45.891Z,34.3
2018-07-30T13:03:48.411Z,34.5
2018-07-30T13:04:50.341Z,34.4
2018-07-30T13:05:52.205Z,34.3
2018-07-30T13:06:54.376Z,34.5
2018-07-30T13:07:56.561Z,34.5
2018-07-30T13:08:59.007Z,34.4
2018-07-30T13:10:00.940Z,34.4
2018-07-30T13:11:03.116Z,34.4
2018-07-30T13:12:05.287Z,34.4
2018-07-30T13:13:07.444Z,34.4
2018-07-30T13:14:09.891Z,34.4
2018-07-30T13:15:12.356Z,34.3
2018-07-30T13:16:14.539Z,34.5
2018-07-30T13:17:16.997Z,34.5
2018-07-30T13:18:19.476Z,34.5
2018-07-30T13:19:21.659Z,34.5
2018-07-30T13:20:23.839Z,34.3
2018-07-30T13:21:26.011Z,34.4
2018-07-30T13:22:27.969Z,34.4
2018-07-30T13:23:30.147Z,34.4
2018-07-30T13:24:32.079Z,34.4
2018-07-30T13:25:34.580Z,34.5
2018-07-30T13:26:36.609Z,34.4
2018-07-30T13:27:39.448Z,34.6
2018-07-30T13:28:41.901Z,34.4
2018-07-30T13:29:43.787Z,34.4
2018-07-30T13:30:45.169Z,34.3
2018-07-30T13:31:47.360Z,34.4
2018-07-30T13:32:49.730Z,34.3
2018-07-30T13:33:51.615Z,34.4
2018-07-30T13:34:53.538Z,34.5
2018-07-30T13:35:55.696Z,34.4
2018-07-30T13:36:57.608Z,34.5
2018-07-30T13:37:59.498Z,34.5
2018-07-30T13:39:01.389Z,34.4
2018-07-30T13:40:03.569Z,34.4
2018-07-30T13:41:05.495Z,34.5
2018-07-30T13:42:07.681Z,34.4
2018-07-30T13:43:09.872Z,34.5
2018-07-30T13:44:12.078Z,34.4
2018-07-30T13:45:14.220Z,34.4
2018-07-30T13:46:16.428Z,34.5
2018-07-30T13:47:18.893Z,34.4
2018-07-30T13:48:21.064Z,34.4
2018-07-30T13:49:23.246Z,34.5
2018-07-30T13:50:25.707Z,34.6
2018-07-30T13:51:28.152Z,34.4